Time;durP1;ratioP1;P1;durP2;ratioP2;P2;SDS_P1;SDS_P2;PMS_P1;PMS_P2;Temp;Humidity;BMP_temperature;BMP_pressure;BME280_temperature;BME280_humidity;BME280_pressure;Samples;Min_cycle;Max_cycle;Signal;HPM_P1;HPM_P2
2022/04/30 00:00:32;;;;;;;10.60;2.87;;;9.00;66.30;;;;;;5023797;28;20575;-50
2022/04/30 00:02:59;;;;;;;3.60;2.67;;;9.00;66.60;;;;;;5026969;28;20459;-50
2022/04/30 00:05:28;;;;;;;2.87;2.43;;;8.90;69.10;;;;;;5025637;28;20499;-50
2022/04/30 00:07:55;;;;;;;3.50;2.70;;;8.90;66.10;;;;;;5027430;28;20562;-50
2022/04/30 00:10:22;;;;;;;6.23;2.23;;;8.90;62.80;;;;;;5028393;28;20550;-49
2022/04/30 00:12:50;;;;;;;6.87;3.13;;;8.80;64.00;;;;;;5025062;28;20486;-50
2022/04/30 00:15:17;;;;;;;6.83;2.57;;;8.80;61.60;;;;;;5025604;28;20556;-49
2022/04/30 00:17:43;;;;;;;2.80;2.60;;;8.80;60.50;;;;;;5025092;28;20495;-49
2022/04/30 00:20:10;;;;;;;2.87;2.67;;;8.80;59.50;;;;;;5030412;28;20508;-49
2022/04/30 00:22:37;;;;;;;5.87;2.83;;;8.80;59.50;;;;;;5031248;28;20486;-49
2022/04/30 00:25:04;;;;;;;6.63;2.40;;;8.70;58.70;;;;;;5024707;28;20498;-49
2022/04/30 00:27:31;;;;;;;3.47;3.10;;;8.70;56.60;;;;;;5029934;28;20558;-49
2022/04/30 00:30:00;;;;;;;7.10;3.23;;;8.70;52.90;;;;;;5026876;28;20486;-50
2022/04/30 00:32:26;;;;;;;50.47;29.60;;;8.70;47.90;;;;;;5023143;28;20857;-49
2022/04/30 00:34:53;;;;;;;15.63;6.63;;;8.70;49.70;;;;;;5026169;28;20522;-50
2022/04/30 00:37:19;;;;;;;7.97;5.17;;;8.60;49.30;;;;;;5027337;28;20558;-49
2022/04/30 00:39:46;;;;;;;6.93;4.07;;;8.60;46.90;;;;;;5024315;28;20540;-50
2022/04/30 00:42:14;;;;;;;14.40;3.87;;;8.60;42.70;;;;;;5026930;28;20536;-49
2022/04/30 00:44:43;;;;;;;4.97;2.87;;;8.60;41.40;;;;;;5026082;28;21094;-49
2022/04/30 00:47:16;;;;;;;3.77;3.20;;;8.60;41.50;;;;;;5027788;28;20463;-49
2022/04/30 00:49:43;;;;;;;6.27;2.73;;;8.60;41.50;;;;;;5026366;28;20541;-50
2022/04/30 00:52:13;;;;;;;8.20;3.03;;;8.50;40.10;;;;;;5027168;28;20485;-50
2022/04/30 00:54:41;;;;;;;7.33;3.30;;;8.60;40.70;;;;;;5024745;28;20592;-48
2022/04/30 00:57:13;;;;;;;5.10;3.83;;;8.50;39.20;;;;;;5026684;28;20985;-49
2022/04/30 00:59:41;;;;;;;6.13;3.80;;;8.50;37.90;;;;;;5025459;28;20474;-49
2022/04/30 01:02:11;;;;;;;14.57;7.57;;;8.60;38.30;;;;;;5023463;28;21029;-49
2022/04/30 01:04:38;;;;;;;10.13;6.40;;;8.50;35.20;;;;;;5028077;28;20498;-49
2022/04/30 01:07:07;;;;;;;9.97;6.60;;;8.60;36.20;;;;;;5026241;28;20497;-49
2022/04/30 01:09:39;;;;;;;7.07;6.33;;;8.50;37.30;;;;;;5020387;28;20560;-48
2022/04/30 01:12:09;;;;;;;12.97;6.03;;;8.50;32.90;;;;;;5024262;28;20640;-49
2022/04/30 01:14:37;;;;;;;9.47;5.50;;;8.40;31.80;;;;;;5025576;28;20484;-49
2022/04/30 01:17:06;;;;;;;10.63;5.63;;;8.40;31.60;;;;;;5025160;28;20463;-49
2022/04/30 01:19:36;;;;;;;6.60;4.80;;;8.40;32.50;;;;;;5026766;28;20498;-49
2022/04/30 01:22:09;;;;;;;9.27;5.00;;;8.40;32.20;;;;;;5028080;28;20450;-48
2022/04/30 01:24:38;;;;;;;8.13;4.70;;;8.40;29.70;;;;;;5022392;28;22126;-49
2022/04/30 01:27:06;;;;;;;7.37;4.70;;;8.40;27.80;;;;;;5029516;28;20556;-49
2022/04/30 01:29:36;;;;;;;6.17;4.07;;;8.40;25.60;;;;;;5026346;28;20502;-49
2022/04/30 01:37:36;;;;;;;8.20;3.57;;;8.40;29.70;;;;;;5028163;28;20538;-49
2022/04/30 01:40:06;;;;;;;7.10;3.80;;;8.40;33.10;;;;;;5025539;28;20461;-49
2022/04/30 01:42:36;;;;;;;8.87;4.00;;;8.30;28.10;;;;;;5023796;28;20534;-50
2022/04/30 01:45:05;;;;;;;4.07;2.27;;;8.30;27.30;;;;;;5031035;28;20509;-49
2022/04/30 01:47:34;;;;;;;5.57;3.30;;;8.30;28.20;;;;;;5023053;28;21022;-50
2022/04/30 01:50:01;;;;;;;3.07;2.60;;;8.30;27.90;;;;;;5021991;28;20458;-49
2022/04/30 01:52:28;;;;;;;7.30;2.40;;;8.30;26.70;;;;;;5027613;28;20564;-49
2022/04/30 01:54:54;;;;;;;8.17;3.30;;;8.30;26.70;;;;;;5025303;28;20899;-49
2022/04/30 01:57:25;;;;;;;6.60;2.57;;;8.30;28.90;;;;;;5027857;28;20803;-50
2022/04/30 01:59:52;;;;;;;3.23;2.10;;;8.30;27.40;;;;;;5029572;28;20454;-49
2022/04/30 02:02:22;;;;;;;4.60;2.37;;;8.30;27.80;;;;;;5024112;28;20505;-49
2022/04/30 02:04:50;;;;;;;1.93;1.70;;;8.40;28.60;;;;;;5032954;28;20486;-49
2022/04/30 02:07:17;;;;;;;2.40;2.20;;;8.40;31.60;;;;;;5028544;28;20487;-50
2022/04/30 02:09:44;;;;;;;8.87;2.70;;;8.40;31.40;;;;;;5027417;28;20460;-48
2022/04/30 02:12:11;;;;;;;8.90;2.20;;;8.40;33.00;;;;;;5024878;28;20517;-49
2022/04/30 02:14:42;;;;;;;8.13;2.10;;;8.30;32.70;;;;;;5026519;28;20510;-49
2022/04/30 02:17:10;;;;;;;11.80;2.63;;;8.30;33.80;;;;;;5027049;28;20454;-49
2022/04/30 02:22:22;;;;;;;2.40;2.20;;;8.30;30.80;;;;;;5009383;28;20438;-49
2022/04/30 02:24:49;;;;;;;3.90;2.07;;;8.30;30.20;;;;;;5023955;28;20490;-50
2022/04/30 02:27:17;;;;;;;8.30;2.37;;;8.30;31.40;;;;;;5028516;28;20462;-49
2022/04/30 02:29:45;;;;;;;6.43;2.20;;;8.30;32.10;;;;;;5028364;28;20566;-49
2022/04/30 02:32:11;;;;;;;5.67;2.27;;;8.20;30.60;;;;;;5027766;28;20465;-49
2022/04/30 02:34:38;;;;;;;4.47;2.03;;;8.20;29.40;;;;;;5031459;28;20917;-49
2022/04/30 02:37:05;;;;;;;7.97;2.20;;;8.20;26.90;;;;;;5031876;28;20492;-49
2022/04/30 02:39:31;;;;;;;5.50;1.87;;;8.10;25.30;;;;;;5032091;28;20857;-49
2022/04/30 02:41:58;;;;;;;4.80;2.00;;;8.10;26.90;;;;;;5031600;28;20466;-50
2022/04/30 02:44:26;;;;;;;2.30;1.90;;;8.10;26.40;;;;;;5028451;28;21496;-49
2022/04/30 02:46:54;;;;;;;4.70;2.43;;;8.10;24.60;;;;;;5026568;28;20845;-49
2022/04/30 02:49:21;;;;;;;4.10;1.93;;;8.10;22.80;;;;;;5032917;28;20486;-50
2022/04/30 02:51:49;;;;;;;3.33;1.80;;;8.00;24.00;;;;;;5028409;28;20482;-50
2022/04/30 02:54:16;;;;;;;8.60;2.63;;;8.10;24.00;;;;;;5026564;28;20487;-50
2022/04/30 02:56:43;;;;;;;9.07;2.20;;;8.10;22.80;;;;;;5030321;28;20475;-50
2022/04/30 03:01:55;;;;;;;2.50;2.00;;;8.00;71.60;;;;;;5029361;28;20449;-49
2022/04/30 03:04:23;;;;;;;8.50;2.43;;;8.00;82.50;;;;;;5029038;28;20522;-50
2022/04/30 03:06:49;;;;;;;2.80;1.97;;;7.90;82.50;;;;;;5027453;28;20490;-49
2022/04/30 03:09:16;;;;;;;3.60;2.20;;;7.90;89.90;;;;;;5031075;28;20459;-49
2022/04/30 03:11:43;;;;;;;5.40;3.33;;;7.90;99.70;;;;;;5025802;28;20471;-49
2022/04/30 03:14:10;;;;;;;3.70;2.33;;;7.80;99.90;;;;;;5026955;28;20493;-49
2022/04/30 03:22:06;;;;;;;2.60;1.90;;;7.70;99.90;;;;;;5030693;28;20982;-50
2022/04/30 03:24:33;;;;;;;7.80;2.50;;;7.70;99.90;;;;;;5028372;28;20903;-49
2022/04/30 03:26:59;;;;;;;5.67;2.43;;;7.70;99.90;;;;;;5030604;28;20511;-50
2022/04/30 03:29:26;;;;;;;3.50;1.83;;;7.70;99.90;;;;;;5032637;28;20454;-49
2022/04/30 03:31:53;;;;;;;2.43;1.90;;;7.60;99.90;;;;;;5027905;28;20550;-50
2022/04/30 03:34:20;;;;;;;4.43;2.70;;;7.60;99.90;;;;;;5027894;28;20510;-50
2022/04/30 03:36:48;;;;;;;4.27;1.60;;;7.60;99.90;;;;;;5032181;28;20458;-50
2022/04/30 03:39:14;;;;;;;5.47;2.30;;;7.60;99.90;;;;;;5029897;28;20502;-49
2022/04/30 03:41:41;;;;;;;3.03;2.10;;;7.60;99.90;;;;;;5026835;28;20975;-48
2022/04/30 03:44:08;;;;;;;3.97;2.63;;;7.50;99.90;;;;;;5028846;28;20912;-50
2022/04/30 03:46:35;;;;;;;2.67;1.90;;;7.50;99.90;;;;;;5028267;28;20470;-49
2022/04/30 03:49:03;;;;;;;5.00;2.17;;;7.50;99.90;;;;;;5025880;28;20455;-50
2022/04/30 03:51:30;;;;;;;2.10;1.90;;;7.50;99.90;;;;;;5030203;28;20540;-50
2022/04/30 03:53:58;;;;;;;12.17;2.57;;;7.40;99.90;;;;;;5026704;28;20519;-49
2022/04/30 03:56:24;;;;;;;6.37;2.50;;;7.40;99.90;;;;;;5033221;28;20528;-49
2022/04/30 03:58:51;;;;;;;7.23;3.00;;;7.40;99.90;;;;;;5034251;28;20602;-49
2022/04/30 04:01:19;;;;;;;5.63;3.33;;;7.40;99.90;;;;;;5029907;28;20469;-49
2022/04/30 04:03:46;;;;;;;7.13;3.97;;;7.40;99.90;;;;;;5026921;28;20473;-48
2022/04/30 04:06:15;;;;;;;8.77;4.87;;;7.40;99.90;;;;;;5030223;28;20512;-49
2022/04/30 04:08:42;;;;;;;8.93;5.50;;;7.40;99.90;;;;;;5027844;28;20455;-54
2022/04/30 04:11:13;;;;;;;16.30;8.33;;;7.30;99.90;;;;;;5029173;28;20521;-52
2022/04/30 04:19:07;;;;;;;5.20;2.27;;;7.30;99.90;;;;;;5024159;28;20450;-51
2022/04/30 04:21:34;;;;;;;9.10;2.70;;;7.30;99.90;;;;;;5025925;28;20904;-51
2022/04/30 04:26:48;;;;;;;3.80;2.33;;;7.30;99.90;;;;;;5025340;28;20593;-52
2022/04/30 04:29:16;;;;;;;2.73;2.30;;;7.30;99.90;;;;;;5027565;28;20457;-52
2022/04/30 04:31:42;;;;;;;5.60;3.40;;;7.30;99.90;;;;;;5030809;28;20454;-51
2022/04/30 04:34:09;;;;;;;5.30;4.37;;;7.30;99.90;;;;;;5028873;28;20568;-51
2022/04/30 04:36:36;;;;;;;10.17;4.43;;;7.30;99.90;;;;;;5028366;28;20542;-51
2022/04/30 04:39:04;;;;;;;3.50;2.87;;;7.40;99.90;;;;;;5027499;28;20474;-50
2022/04/30 04:41:30;;;;;;;3.33;2.47;;;7.40;99.90;;;;;;5029783;28;20509;-51
2022/04/30 04:43:58;;;;;;;7.60;3.00;;;7.40;99.90;;;;;;5024561;28;20560;-51
2022/04/30 04:46:24;;;;;;;4.63;2.50;;;7.40;99.90;;;;;;5029970;28;20454;-51
2022/04/30 04:48:52;;;;;;;3.37;2.40;;;7.40;99.90;;;;;;5027297;28;20483;-51
2022/04/30 04:51:20;;;;;;;2.80;2.60;;;7.40;99.90;;;;;;5028355;28;20540;-51
2022/04/30 04:53:46;;;;;;;2.73;2.30;;;7.50;99.90;;;;;;5024719;28;20489;-52
2022/04/30 04:56:13;;;;;;;12.60;3.33;;;7.50;99.90;;;;;;5030802;28;20513;-50
2022/04/30 04:58:40;;;;;;;19.33;2.80;;;7.60;99.90;;;;;;5023969;28;20499;-51
2022/04/30 05:01:08;;;;;;;2.67;2.47;;;7.60;99.90;;;;;;5028310;28;21044;-51
2022/04/30 05:03:35;;;;;;;6.40;3.17;;;7.60;99.90;;;;;;5028083;28;20486;-51
2022/04/30 05:06:01;;;;;;;7.00;2.53;;;7.60;99.90;;;;;;5038944;23;20584;-54
2022/04/30 05:08:28;;;;;;;6.40;2.80;;;7.70;99.90;;;;;;5024520;28;20532;-51
2022/04/30 05:10:54;;;;;;;6.50;2.60;;;7.70;99.90;;;;;;5021040;28;20494;-51
2022/04/30 05:13:21;;;;;;;2.23;2.03;;;7.70;99.90;;;;;;5025671;28;20556;-54
2022/04/30 05:15:48;;;;;;;3.47;2.37;;;7.80;99.90;;;;;;5025448;28;20479;-53
2022/04/30 05:18:16;;;;;;;2.20;1.90;;;7.80;99.90;;;;;;5025803;28;20486;-52
2022/04/30 05:20:42;;;;;;;6.30;2.03;;;7.90;99.90;;;;;;5027232;28;20503;-52
2022/04/30 05:23:09;;;;;;;2.70;2.10;;;7.90;99.90;;;;;;5025422;28;20504;-52
2022/04/30 05:25:36;;;;;;;4.63;2.30;;;7.90;99.90;;;;;;5027093;28;20478;-52
2022/04/30 05:28:02;;;;;;;2.10;1.87;;;7.90;99.90;;;;;;5027534;28;20458;-51
2022/04/30 05:30:29;;;;;;;3.50;2.70;;;8.00;99.90;;;;;;5025014;28;20512;-52
2022/04/30 05:32:55;;;;;;;7.00;2.40;;;8.10;99.90;;;;;;5029019;28;20535;-53
2022/04/30 05:35:23;;;;;;;4.87;1.77;;;8.10;99.90;;;;;;5027863;28;20584;-52
2022/04/30 05:37:50;;;;;;;3.87;2.20;;;8.20;99.90;;;;;;5028646;28;20944;-53
2022/04/30 05:40:18;;;;;;;5.87;1.93;;;8.30;99.90;;;;;;5023970;28;20531;-52
2022/04/30 05:42:44;;;;;;;2.40;2.07;;;8.30;99.90;;;;;;5030181;28;20458;-53
2022/04/30 05:45:11;;;;;;;5.03;2.20;;;8.40;99.90;;;;;;5026998;28;20895;-53
2022/04/30 05:47:38;;;;;;;4.60;2.07;;;8.40;99.90;;;;;;5029708;28;20520;-53
2022/04/30 05:50:05;;;;;;;2.20;1.97;;;8.50;99.90;;;;;;5024672;28;20959;-52
2022/04/30 05:52:34;;;;;;;2.90;2.23;;;8.60;99.90;;;;;;5024425;28;20450;-52
2022/04/30 05:55:02;;;;;;;2.50;2.40;;;8.70;92.90;;;;;;5025934;28;20570;-52
2022/04/30 05:57:29;;;;;;;6.47;2.53;;;8.70;20.50;;;;;;5026388;28;20492;-52
2022/04/30 05:59:55;;;;;;;4.50;2.50;;;8.80;23.90;;;;;;5028978;28;20489;-53
2022/04/30 06:02:22;;;;;;;7.93;3.47;;;8.90;29.40;;;;;;5021111;28;22217;-53
2022/04/30 06:04:49;;;;;;;2.53;2.10;;;9.00;30.00;;;;;;5027824;28;20541;-51
2022/04/30 06:07:16;;;;;;;6.30;2.63;;;9.10;31.80;;;;;;5028869;28;20545;-51
2022/04/30 06:09:44;;;;;;;21.73;2.37;;;9.10;35.30;;;;;;5024463;28;20462;-52
2022/04/30 06:12:11;;;;;;;6.30;2.60;;;9.20;43.90;;;;;;5028566;28;22506;-52
2022/04/30 06:14:37;;;;;;;3.33;2.43;;;9.30;38.70;;;;;;5025263;28;21072;-53
2022/04/30 06:17:04;;;;;;;14.83;2.17;;;9.40;44.40;;;;;;5028750;28;20482;-50
2022/04/30 06:19:31;;;;;;;5.70;2.30;;;9.50;49.40;;;;;;5030926;28;20463;-52
2022/04/30 06:21:57;;;;;;;5.57;2.77;;;9.60;47.70;;;;;;5033061;28;20492;-53
2022/04/30 06:24:24;;;;;;;9.20;3.43;;;9.80;51.20;;;;;;5031911;28;20487;-51
2022/04/30 06:26:52;;;;;;;14.40;2.60;;;10.00;59.20;;;;;;5026501;28;20521;-52
2022/04/30 06:29:19;;;;;;;5.20;2.30;;;10.00;60.60;;;;;;5030357;28;20838;-53
2022/04/30 06:31:45;;;;;;;4.70;2.80;;;10.10;67.40;;;;;;5028865;28;20469;-52
2022/04/30 06:34:12;;;;;;;3.37;2.47;;;10.20;71.00;;;;;;5031176;28;20893;-52
2022/04/30 06:36:39;;;;;;;3.17;2.57;;;10.20;77.30;;;;;;5029833;28;20474;-53
2022/04/30 06:39:06;;;;;;;4.13;2.50;;;10.30;76.80;;;;;;5029729;28;20462;-53
2022/04/30 06:41:32;;;;;;;3.83;2.23;;;10.30;73.70;;;;;;5031250;28;20462;-53
2022/04/30 06:44:00;;;;;;;6.57;2.40;;;10.40;76.30;;;;;;5032905;28;20455;-52
2022/04/30 06:46:27;;;;;;;2.70;2.50;;;10.50;73.60;;;;;;5031936;28;20482;-53
2022/04/30 06:48:54;;;;;;;5.13;3.10;;;10.50;80.00;;;;;;5032210;28;21306;-52
2022/04/30 06:51:20;;;;;;;8.63;2.90;;;10.60;82.90;;;;;;5027877;28;20462;-52
2022/04/30 06:59:17;;;;;;;4.43;3.30;;;10.70;86.80;;;;;;5028909;28;20688;-52
2022/04/30 07:01:48;;;;;;;6.60;2.80;;;10.80;84.60;;;;;;5032446;28;20537;-54
2022/04/30 07:04:17;;;;;;;3.13;2.50;;;10.80;89.40;;;;;;5017855;28;20521;-53
2022/04/30 07:06:46;;;;;;;10.63;2.80;;;10.90;84.90;;;;;;5023789;28;21026;-54
2022/04/30 07:09:13;;;;;;;4.60;2.67;;;11.00;90.00;;;;;;5031116;28;20446;-51
2022/04/30 07:11:41;;;;;;;6.93;3.63;;;11.20;89.70;;;;;;5034140;28;20931;-54
2022/04/30 07:14:08;;;;;;;7.00;3.60;;;11.20;92.20;;;;;;5032538;28;20553;-52
2022/04/30 07:16:36;;;;;;;9.57;2.60;;;11.40;91.70;;;;;;5032135;28;20505;-54
2022/04/30 07:19:03;;;;;;;3.00;2.80;;;11.60;97.70;;;;;;5026077;28;21058;-55
2022/04/30 07:21:31;;;;;;;8.83;2.87;;;11.50;99.90;;;;;;5028980;28;20457;-53
2022/04/30 07:23:58;;;;;;;3.33;2.97;;;11.50;99.90;;;;;;5025341;28;20466;-54
2022/04/30 07:26:24;;;;;;;8.07;3.20;;;11.50;99.90;;;;;;5027673;28;20529;-52
2022/04/30 07:28:51;;;;;;;5.53;2.90;;;11.50;99.90;;;;;;5029432;28;20600;-53
2022/04/30 07:31:18;;;;;;;5.60;2.87;;;11.70;99.90;;;;;;5028031;28;20459;-53
2022/04/30 07:33:47;;;;;;;7.00;3.40;;;11.90;99.90;;;;;;5031565;28;20952;-52
2022/04/30 07:36:14;;;;;;;3.10;2.73;;;11.90;99.90;;;;;;5029449;28;20479;-53
2022/04/30 07:38:41;;;;;;;3.27;2.83;;;12.00;99.90;;;;;;5032719;28;21017;-53
2022/04/30 07:41:07;;;;;;;6.70;3.23;;;11.90;99.90;;;;;;5033920;28;20459;-54
2022/04/30 07:43:34;;;;;;;12.33;3.70;;;12.10;99.90;;;;;;5030373;28;20458;-53
2022/04/30 07:46:01;;;;;;;3.40;2.90;;;12.10;99.90;;;;;;5027780;28;20483;-54
2022/04/30 07:48:27;;;;;;;6.13;3.53;;;12.10;99.90;;;;;;5025986;28;20956;-52
2022/04/30 07:50:57;;;;;;;7.33;3.70;;;12.20;99.90;;;;;;5022439;28;20529;-52
2022/04/30 07:53:24;;;;;;;15.77;3.90;;;12.30;99.90;;;;;;5026954;28;20463;-53
2022/04/30 07:55:53;;;;;;;3.40;2.90;;;12.40;99.90;;;;;;5029612;28;20900;-53
2022/04/30 07:58:19;;;;;;;3.37;3.07;;;12.50;99.90;;;;;;5026959;28;20905;-54
2022/04/30 08:00:46;;;;;;;7.03;3.03;;;12.60;99.90;;;;;;5024577;28;20494;-53
2022/04/30 08:03:12;;;;;;;7.13;4.00;;;12.60;99.90;;;;;;5027700;28;21097;-54
2022/04/30 08:05:39;;;;;;;4.60;3.47;;;12.60;99.90;;;;;;5029960;28;21018;-54
2022/04/30 08:08:08;;;;;;;3.33;2.70;;;12.80;99.90;;;;;;5023590;28;20466;-54
2022/04/30 08:10:34;;;;;;;3.53;3.20;;;12.60;99.90;;;;;;5016383;28;20515;-52
2022/04/30 08:13:01;;;;;;;4.23;2.80;;;12.90;99.90;;;;;;5021764;28;20517;-53
2022/04/30 08:15:27;;;;;;;8.40;3.50;;;13.10;99.90;;;;;;5019588;28;21099;-53
2022/04/30 08:17:54;;;;;;;4.60;2.43;;;13.30;99.90;;;;;;5028991;28;20462;-54
2022/04/30 08:20:22;;;;;;;3.40;2.90;;;13.40;99.90;;;;;;5026522;28;20509;-53
2022/04/30 08:22:49;;;;;;;4.20;2.57;;;13.70;99.90;;;;;;5028676;28;20520;-54
2022/04/30 08:25:17;;;;;;;3.10;2.80;;;13.90;99.90;;;;;;5024534;28;20478;-53
2022/04/30 08:27:45;;;;;;;4.83;3.13;;;14.10;99.90;;;;;;5021608;28;20928;-52
2022/04/30 08:30:12;;;;;;;4.73;3.30;;;14.50;99.90;;;;;;5019659;28;20463;-55
2022/04/30 08:32:39;;;;;;;5.00;2.90;;;14.80;99.90;;;;;;5023941;28;20455;-54
2022/04/30 08:35:06;;;;;;;4.03;3.23;;;15.20;99.90;;;;;;5019734;28;20482;-52
2022/04/30 08:37:32;;;;;;;13.43;3.20;;;15.30;99.90;;;;;;5021965;28;20551;-54
2022/04/30 08:39:59;;;;;;;4.27;2.87;;;15.00;99.90;;;;;;5020220;28;20600;-52
2022/04/30 08:42:28;;;;;;;8.10;3.70;;;14.80;99.90;;;;;;5021580;28;20596;-54
2022/04/30 08:44:55;;;;;;;6.50;3.10;;;14.60;99.90;;;;;;5019908;28;20521;-53
2022/04/30 08:47:22;;;;;;;3.97;3.13;;;14.50;99.90;;;;;;5020537;28;21070;-53
2022/04/30 08:49:50;;;;;;;2.93;2.60;;;14.70;99.90;;;;;;5019996;28;22667;-53
2022/04/30 08:52:16;;;;;;;11.07;4.03;;;14.80;99.90;;;;;;5023097;28;20459;-55
2022/04/30 08:54:43;;;;;;;5.87;2.73;;;14.70;99.90;;;;;;5017108;28;20479;-53
2022/04/30 08:57:10;;;;;;;4.70;3.30;;;14.80;99.90;;;;;;5022100;28;20478;-52
2022/04/30 08:59:38;;;;;;;8.27;4.20;;;14.50;99.90;;;;;;5019882;28;20458;-54
2022/04/30 09:02:10;;;;;;;6.10;3.30;;;14.70;99.90;;;;;;5018905;28;20513;-52
2022/04/30 09:04:44;;;;;;;4.57;3.27;;;14.60;1.40;;;;;;5025962;28;20952;-52
2022/04/30 09:07:16;;;;;;;14.20;3.63;;;14.60;99.90;;;;;;5019338;28;20485;-52
2022/04/30 09:09:43;;;;;;;8.50;3.43;;;15.00;99.90;;;;;;5025258;28;20466;-52
2022/04/30 09:12:11;;;;;;;8.43;3.23;;;15.20;99.90;;;;;;5016850;28;20459;-55
2022/04/30 09:14:41;;;;;;;7.40;3.70;;;15.70;99.90;;;;;;5021506;28;20575;-54
2022/04/30 09:17:10;;;;;;;7.30;3.00;;;16.00;99.90;;;;;;5020141;28;20482;-52
2022/04/30 09:19:47;;;;;;;11.63;3.73;;;16.10;99.90;;;;;;5019494;28;20471;-54
2022/04/30 09:22:14;;;;;;;3.37;2.93;;;16.50;99.90;;;;;;5019148;28;20542;-53
2022/04/30 09:24:49;;;;;;;3.20;2.90;;;16.60;99.90;;;;;;5016349;28;20834;-53
2022/04/30 09:27:16;;;;;;;4.70;2.80;;;16.60;99.90;;;;;;5017321;28;20466;-53
2022/04/30 09:29:44;;;;;;;4.83;3.60;;;16.90;99.90;;;;;;5015521;28;20875;-52
2022/04/30 09:32:17;;;;;;;6.67;3.00;;;17.30;99.90;;;;;;5017948;28;20483;-53
2022/04/30 09:40:23;;;;;;;6.53;3.47;;;18.40;99.90;;;;;;5027271;28;20466;-52
2022/04/30 09:42:52;;;;;;;5.60;3.23;;;18.50;99.90;;;;;;5025442;28;20470;-52
2022/04/30 09:45:29;;;;;;;4.10;3.50;;;18.50;99.90;;;;;;5026154;28;21016;-53
2022/04/30 09:47:57;;;;;;;10.60;3.30;;;18.70;99.90;;;;;;5030075;28;20473;-52
2022/04/30 09:55:55;;;;;;;2.97;2.70;;;18.90;99.90;;;;;;5019845;28;20531;-53
2022/04/30 09:58:24;;;;;;;6.47;3.27;;;18.70;99.90;;;;;;5023212;28;20553;-53
2022/04/30 10:00:56;;;;;;;10.03;3.27;;;18.50;99.90;;;;;;5021693;28;20541;-55
2022/04/30 10:03:26;;;;;;;11.87;3.43;;;18.00;99.90;;;;;;5023657;28;20980;-52
2022/04/30 10:05:58;;;;;;;3.47;2.57;;;18.90;99.90;;;;;;5021258;28;20485;-52
2022/04/30 10:08:26;;;;;;;26.27;3.40;;;19.00;99.90;;;;;;5028245;28;20528;-52
2022/04/30 10:11:04;;;;;;;6.70;3.47;;;19.30;99.90;;;;;;5029785;28;20851;-53
2022/04/30 10:13:41;;;;;;;6.13;3.13;;;19.10;99.90;;;;;;5026998;28;20543;-52
2022/04/30 10:16:15;;;;;;;3.57;2.53;;;19.30;99.90;;;;;;5020711;28;20562;-53
2022/04/30 10:18:45;;;;;;;5.93;2.93;;;19.30;99.90;;;;;;5024215;28;20467;-53
2022/04/30 10:21:17;;;;;;;4.50;2.77;;;19.50;99.90;;;;;;5027395;28;20470;-53
2022/04/30 10:23:44;;;;;;;7.20;3.30;;;19.50;99.90;;;;;;5030347;28;20454;-53
2022/04/30 10:26:11;;;;;;;5.73;3.40;;;20.10;99.90;;;;;;5025180;28;20476;-52
2022/04/30 10:28:38;;;;;;;5.23;3.30;;;20.60;99.90;;;;;;5023234;28;21019;-53
2022/04/30 10:31:10;;;;;;;6.60;2.87;;;20.20;99.90;;;;;;5045781;28;20524;-52
2022/04/30 10:33:47;;;;;;;5.00;2.80;;;19.80;99.90;;;;;;5031273;28;20545;-53
2022/04/30 10:36:14;;;;;;;7.80;3.97;;;19.90;99.90;;;;;;5031162;28;20568;-53
2022/04/30 10:38:42;;;;;;;4.70;2.83;;;19.70;99.90;;;;;;5028522;28;20459;-52
2022/04/30 10:41:11;;;;;;;8.03;3.33;;;19.10;99.90;;;;;;5031251;28;20585;-53
2022/04/30 10:43:39;;;;;;;8.33;3.37;;;19.10;99.90;;;;;;5030877;28;20474;-54
2022/04/30 10:46:17;;;;;;;4.03;3.03;;;18.90;99.90;;;;;;5030544;28;20477;-53
2022/04/30 10:48:45;;;;;;;4.57;3.10;;;19.20;99.90;;;;;;5022601;28;20612;-52
2022/04/30 10:51:14;;;;;;;8.80;3.57;;;19.60;99.90;;;;;;5026176;28;20482;-52
2022/04/30 10:53:42;;;;;;;12.47;3.63;;;19.00;99.90;;;;;;5028634;28;20470;-52
2022/04/30 10:56:10;;;;;;;4.30;3.10;;;18.70;99.90;;;;;;5020585;28;20556;-52
2022/04/30 10:58:38;;;;;;;6.30;3.60;;;18.90;99.90;;;;;;5021906;28;20872;-52
2022/04/30 11:01:15;;;;;;;6.97;3.40;;;18.80;99.90;;;;;;5028368;28;20520;-52
2022/04/30 11:03:43;;;;;;;6.00;3.20;;;18.90;99.90;;;;;;5027377;28;20466;-53
2022/04/30 11:06:13;;;;;;;3.43;3.00;;;18.60;99.90;;;;;;5024959;28;21130;-52
2022/04/30 11:08:39;;;;;;;8.10;3.67;;;18.50;99.90;;;;;;5028421;28;20490;-53
2022/04/30 11:11:06;;;;;;;5.40;3.73;;;18.80;99.90;;;;;;5032474;28;20479;-52
2022/04/30 11:13:32;;;;;;;5.67;3.50;;;19.30;99.90;;;;;;5031197;28;20497;-53
2022/04/30 11:15:59;;;;;;;6.30;2.97;;;20.10;99.90;;;;;;5026263;28;20542;-53
2022/04/30 11:18:27;;;;;;;6.57;2.87;;;20.60;99.90;;;;;;5020796;28;20584;-53
2022/04/30 11:20:59;;;;;;;4.20;3.20;;;21.00;99.90;;;;;;5024626;28;20452;-53
2022/04/30 11:23:29;;;;;;;5.30;3.37;;;20.40;99.90;;;;;;5026696;28;20830;-52
2022/04/30 11:25:56;;;;;;;3.20;2.90;;;20.50;99.90;;;;;;5031582;28;20869;-54
2022/04/30 11:28:29;;;;;;;5.40;3.17;;;19.60;99.90;;;;;;5029326;28;20522;-51
2022/04/30 11:30:59;;;;;;;6.30;3.37;;;19.80;99.90;;;;;;5031511;28;20498;-51
2022/04/30 11:33:33;;;;;;;5.90;3.20;;;20.10;99.90;;;;;;5032168;28;20497;-51
2022/04/30 11:35:59;;;;;;;6.13;3.67;;;20.30;99.90;;;;;;5033111;28;20900;-52
2022/04/30 11:38:27;;;;;;;3.20;3.00;;;20.20;99.90;;;;;;5031269;28;20517;-51
2022/04/30 11:41:03;;;;;;;9.63;3.40;;;20.40;99.90;;;;;;5031436;28;20864;-52
2022/04/30 11:43:29;;;;;;;4.70;3.57;;;20.40;99.90;;;;;;5027314;28;20455;-51
2022/04/30 11:45:59;;;;;;;8.30;3.50;;;20.20;99.90;;;;;;5031448;28;20883;-52
2022/04/30 11:48:27;;;;;;;3.23;3.03;;;20.40;99.90;;;;;;5032482;28;20455;-53
2022/04/30 11:50:54;;;;;;;3.53;3.23;;;20.30;99.90;;;;;;5032727;28;20513;-51
2022/04/30 11:53:21;;;;;;;14.63;3.80;;;20.10;99.90;;;;;;5016334;28;20512;-52
2022/04/30 11:55:49;;;;;;;7.97;3.27;;;20.20;99.90;;;;;;5031453;28;20474;-52
2022/04/30 11:58:16;;;;;;;5.40;3.50;;;20.40;99.90;;;;;;5033032;28;20517;-51
2022/04/30 12:00:43;;;;;;;7.80;3.93;;;19.80;99.90;;;;;;5027068;28;20552;-52
2022/04/30 12:03:09;;;;;;;3.53;3.23;;;19.30;99.90;;;;;;5030170;28;20960;-53
2022/04/30 12:05:36;;;;;;;4.87;2.87;;;19.40;99.90;;;;;;5027896;28;20598;-52
2022/04/30 12:08:04;;;;;;;6.47;3.70;;;19.10;99.90;;;;;;5023904;28;20466;-51
2022/04/30 12:10:31;;;;;;;3.03;2.73;;;19.00;99.90;;;;;;5028026;28;20486;-53
2022/04/30 12:12:59;;;;;;;5.47;3.50;;;19.00;99.90;;;;;;5031923;28;20524;-52
2022/04/30 12:15:28;;;;;;;9.63;2.70;;;19.00;99.90;;;;;;5030158;28;20571;-54
2022/04/30 12:26:25;;;;;;;5.63;3.43;;;20.10;99.90;;;;;;5029006;28;20471;-52
2022/04/30 12:28:53;;;;;;;4.90;3.23;;;20.40;99.90;;;;;;5028006;28;20867;-51
2022/04/30 12:31:20;;;;;;;4.67;3.23;;;20.40;99.90;;;;;;5022961;28;20459;-57
2022/04/30 12:33:50;;;;;;;4.20;2.70;;;20.50;99.90;;;;;;5025086;28;20494;-52
2022/04/30 12:36:17;;;;;;;2.97;2.77;;;20.40;99.90;;;;;;5032259;28;20513;-55
2022/04/30 12:38:53;;;;;;;4.43;3.33;;;20.60;99.90;;;;;;5031995;28;20462;-53
2022/04/30 12:41:20;;;;;;;3.37;3.07;;;20.70;99.90;;;;;;5032074;28;20454;-52
2022/04/30 12:43:46;;;;;;;3.27;2.87;;;20.90;99.90;;;;;;5029817;28;20498;-50
2022/04/30 12:46:21;;;;;;;6.30;3.40;;;20.60;99.90;;;;;;5031754;28;20892;-53
2022/04/30 12:48:47;;;;;;;8.57;2.80;;;20.50;99.90;;;;;;5031511;28;20449;-51
2022/04/30 12:51:16;;;;;;;5.83;2.70;;;19.90;99.90;;;;;;5017707;28;20479;-51
2022/04/30 12:53:42;;;;;;;10.77;2.73;;;20.30;99.90;;;;;;5031179;28;20857;-51
2022/04/30 12:56:09;;;;;;;7.97;2.83;;;20.30;99.90;;;;;;5031488;28;20549;-52
2022/04/30 12:58:36;;;;;;;9.07;3.40;;;20.10;99.90;;;;;;5029557;28;20561;-52
2022/04/30 13:01:02;;;;;;;8.60;3.30;;;20.10;99.90;;;;;;5030620;28;20979;-53
2022/04/30 13:03:31;;;;;;;3.83;3.40;;;20.40;99.90;;;;;;5030786;28;20516;-51
2022/04/30 13:05:58;;;;;;;8.50;2.70;;;20.50;99.90;;;;;;5031368;28;20486;-51
2022/04/30 13:13:30;;;;;;;3.53;3.00;;;20.40;99.90;;;;;;5031131;28;20446;-52
2022/04/30 13:13:55;;;;;;;27.03;5.40;;;20.80;99.90;;;;;;5030950;28;20462;-53
2022/04/30 13:16:21;;;;;;;7.00;3.53;;;21.00;99.90;;;;;;5029302;28;20564;-53
2022/04/30 13:18:49;;;;;;;5.77;2.80;;;21.00;99.90;;;;;;5030483;28;20459;-53
2022/04/30 13:21:16;;;;;;;2.83;2.30;;;21.20;99.90;;;;;;5024427;28;20517;-55
2022/04/30 13:23:42;;;;;;;9.83;3.53;;;21.70;99.90;;;;;;5031191;28;20451;-54
2022/04/30 13:26:11;;;;;;;3.63;2.77;;;21.80;99.90;;;;;;5028815;28;20506;-53
2022/04/30 13:28:38;;;;;;;3.80;2.80;;;21.30;99.90;;;;;;5027676;28;20470;-55
2022/04/30 13:31:05;;;;;;;3.57;2.80;;;21.30;99.90;;;;;;5031237;28;20454;-54
2022/04/30 13:33:31;;;;;;;8.03;3.03;;;21.50;99.90;;;;;;5029846;28;21137;-54
2022/04/30 13:36:01;;;;;;;7.00;2.57;;;20.90;99.90;;;;;;5028979;28;20471;-54
2022/04/30 13:38:28;;;;;;;12.73;2.33;;;21.20;99.90;;;;;;5029370;28;20455;-53
2022/04/30 13:40:55;;;;;;;5.23;2.80;;;21.20;99.90;;;;;;5028073;28;20553;-54
2022/04/30 13:43:21;;;;;;;22.83;3.03;;;22.00;99.90;;;;;;5028781;28;20443;-52
2022/04/30 13:45:48;;;;;;;8.90;2.27;;;22.30;99.90;;;;;;5028366;28;20494;-51